createdAt,value
2018-10-09T00:00:21.332Z,100383.89
2018-10-09T00:01:23.951Z,100376.40
2018-10-09T00:02:26.561Z,100383.54
2018-10-09T00:03:29.159Z,100377.22
2018-10-09T00:04:31.750Z,100379.06
2018-10-09T00:05:34.343Z,100380.88
2018-10-09T00:06:37.079Z,100381.22
2018-10-09T00:07:39.667Z,100378.20
2018-10-09T00:08:42.247Z,100374.72
2018-10-09T00:09:44.862Z,100372.87
2018-10-09T00:10:47.531Z,100365.38
2018-10-09T00:11:50.136Z,100365.03
2018-10-09T00:12:52.735Z,100367.70
2018-10-09T00:13:55.343Z,100369.52
2018-10-09T00:14:57.991Z,100370.84
2018-10-09T00:16:00.583Z,100369.38
2018-10-09T00:17:03.195Z,100365.16
2018-10-09T00:18:05.804Z,100364.69
2018-10-09T00:19:08.624Z,100365.52
2018-10-09T00:20:15.291Z,100369.52
2018-10-09T00:21:17.891Z,100364.18
2018-10-09T00:22:20.487Z,100365.16
2018-10-09T00:23:23.072Z,100362.50
2018-10-09T00:24:25.757Z,100363.36
2018-10-09T00:25:28.347Z,100356.34
2018-10-09T00:26:31.045Z,100360.34
2018-10-09T00:27:33.688Z,100352.81
2018-10-09T00:28:36.311Z,100355.48
2018-10-09T00:29:38.903Z,100358.16
2018-10-09T00:30:41.513Z,100351.48
2018-10-09T00:31:44.115Z,100348.47
2018-10-09T00:32:46.787Z,100351.14
2018-10-09T00:33:49.402Z,100347.99
2018-10-09T00:34:51.995Z,100345.80
2018-10-09T00:35:54.599Z,100346.31
2018-10-09T00:36:57.200Z,100345.45
2018-10-09T00:37:59.795Z,100349.80
2018-10-09T00:39:03.087Z,100348.63
2018-10-09T00:40:05.795Z,100347.30
2018-10-09T00:41:08.415Z,100348.13
2018-10-09T00:42:11.029Z,100339.65
2018-10-09T00:43:13.631Z,100337.11
2018-10-09T00:44:16.358Z,100339.30
2018-10-09T00:45:18.972Z,100337.62
2018-10-09T00:46:21.591Z,100337.27
2018-10-09T00:47:24.207Z,100344.28
2018-10-09T00:48:26.841Z,100341.75
2018-10-09T00:49:29.459Z,100342.60
2018-10-09T00:50:32.324Z,100341.27
2018-10-09T00:51:34.959Z,100340.89
2018-10-09T00:52:37.607Z,100336.89
2018-10-09T00:53:40.235Z,100338.73
2018-10-09T00:54:42.895Z,100330.23
2018-10-09T00:55:45.552Z,100328.06
2018-10-09T00:56:48.171Z,100326.73
2018-10-09T00:57:50.827Z,100322.23
2018-10-09T00:58:53.475Z,100317.05
2018-10-09T00:59:56.091Z,100318.73
2018-10-09T01:00:58.683Z,100310.05
2018-10-09T01:02:01.311Z,100313.53
2018-10-09T01:03:03.971Z,100323.21
2018-10-09T01:04:06.644Z,100318.39
2018-10-09T01:05:09.299Z,100316.20
2018-10-09T01:06:11.919Z,100311.37
2018-10-09T01:07:14.519Z,100311.86
2018-10-09T01:08:17.115Z,100311.86
2018-10-09T01:09:20.066Z,100315.03
2018-10-09T01:10:22.556Z,100321.19
2018-10-09T01:11:25.167Z,100319.03
2018-10-09T01:12:27.765Z,100312.02
2018-10-09T01:13:30.399Z,100303.03
2018-10-09T01:14:33.021Z,100308.36
2018-10-09T01:15:35.607Z,100307.03
2018-10-09T01:16:38.211Z,100305.00
2018-10-09T01:17:40.803Z,100312.49
2018-10-09T01:18:43.387Z,100310.34
2018-10-09T01:19:46.035Z,100311.67
2018-10-09T01:20:48.647Z,100311.67
2018-10-09T01:21:51.239Z,100312.49
2018-10-09T01:22:53.868Z,100317.98
2018-10-09T01:23:56.463Z,100310.47
2018-10-09T01:24:59.063Z,100308.66
2018-10-09T01:26:01.700Z,100305.64
2018-10-09T01:27:04.327Z,100304.66
2018-10-09T01:28:06.991Z,100303.33
2018-10-09T01:29:09.655Z,100298.47
2018-10-09T01:30:12.257Z,100298.98
2018-10-09T01:31:14.871Z,100295.80
2018-10-09T01:32:17.483Z,100298.47
2018-10-09T01:33:20.083Z,100293.14
2018-10-09T01:34:22.675Z,100290.12
2018-10-09T01:35:25.284Z,100300.31
2018-10-09T01:36:27.903Z,100298.98
2018-10-09T01:37:30.495Z,100301.64
2018-10-09T01:38:33.084Z,100304.66
2018-10-09T01:39:35.719Z,100307.45
2018-10-09T01:40:38.303Z,100306.98
2018-10-09T01:41:40.928Z,100304.31
2018-10-09T01:42:43.523Z,100306.12
2018-10-09T01:43:46.111Z,100304.78
2018-10-09T01:44:48.727Z,100305.30
2018-10-09T01:45:51.370Z,100303.11
2018-10-09T01:46:53.967Z,100306.12
2018-10-09T01:47:56.591Z,100311.95
2018-10-09T01:48:59.211Z,100314.12
2018-10-09T01:50:01.819Z,100310.63
2018-10-09T01:51:04.427Z,100309.42
2018-10-09T01:52:07.175Z,100306.62
2018-10-09T01:53:09.767Z,100302.63
2018-10-09T01:54:13.039Z,100288.95
2018-10-09T01:55:15.661Z,100293.77
2018-10-09T01:56:18.260Z,100291.45
2018-10-09T01:57:20.871Z,100299.96
2018-10-09T01:58:23.500Z,100298.63
2018-10-09T01:59:26.143Z,100301.30
2018-10-09T02:00:28.754Z,100295.62
2018-10-09T02:01:31.349Z,100293.77
2018-10-09T02:02:33.944Z,100289.30
2018-10-09T02:03:36.579Z,100268.06
2018-10-09T02:04:39.187Z,100283.63
2018-10-09T02:05:41.882Z,100283.97
2018-10-09T02:06:44.540Z,100279.62
2018-10-09T02:07:47.155Z,100270.64
2018-10-09T02:08:49.755Z,100268.96
2018-10-09T02:09:52.363Z,100264.45
2018-10-09T02:10:55.181Z,100263.63
2018-10-09T02:11:57.800Z,100263.97
2018-10-09T02:13:00.383Z,100235.73
2018-10-09T02:14:03.003Z,100257.31
2018-10-09T02:15:05.839Z,100255.63
2018-10-09T02:16:08.644Z,100261.78
2018-10-09T02:17:11.283Z,100255.98
2018-10-09T02:18:13.876Z,100252.96
2018-10-09T02:19:16.464Z,100258.64
2018-10-09T02:20:19.075Z,100251.13
2018-10-09T02:21:21.783Z,100250.30
2018-10-09T02:22:24.377Z,100250.64
2018-10-09T02:23:27.153Z,100249.31
2018-10-09T02:24:29.752Z,100247.98
2018-10-09T02:25:32.339Z,100248.97
2018-10-09T02:26:34.953Z,100244.97
2018-10-09T02:27:37.555Z,100243.98
2018-10-09T02:28:40.159Z,100245.79
2018-10-09T02:29:42.747Z,100241.95
2018-10-09T02:30:45.342Z,100244.11
2018-10-09T02:31:48.063Z,100242.30
2018-10-09T02:32:50.658Z,100245.79
2018-10-09T02:33:53.268Z,100236.97
2018-10-09T02:34:55.909Z,100236.97
2018-10-09T02:35:58.476Z,100234.78
2018-10-09T02:37:01.195Z,100235.64
2018-10-09T02:38:03.887Z,100233.45
2018-10-09T02:39:08.671Z,100232.12
2018-10-09T02:40:11.279Z,100234.78
2018-10-09T02:41:13.875Z,100240.11
2018-10-09T02:42:16.507Z,100240.97
2018-10-09T02:43:19.112Z,100236.97
2018-10-09T02:44:21.708Z,100241.31
2018-10-09T02:45:24.296Z,100232.97
2018-10-09T02:46:26.899Z,100236.97
2018-10-09T02:47:29.514Z,100236.11
2018-10-09T02:48:32.119Z,100234.30
2018-10-09T02:49:34.728Z,100229.31
2018-10-09T02:50:37.319Z,100225.32
2018-10-09T02:51:39.920Z,100218.66
2018-10-09T02:52:42.552Z,100219.64
2018-10-09T02:53:45.151Z,100218.15
2018-10-09T02:54:47.751Z,100222.66
2018-10-09T02:55:50.355Z,100216.47
2018-10-09T02:56:52.971Z,100203.01
2018-10-09T02:57:55.566Z,100204.82
2018-10-09T02:58:58.167Z,100196.00
2018-10-09T03:00:00.973Z,100193.81
2018-10-09T03:01:03.588Z,100186.66
2018-10-09T03:02:06.242Z,100182.67
2018-10-09T03:03:08.851Z,100178.67
2018-10-09T03:04:11.455Z,100177.81
2018-10-09T03:05:14.063Z,100180.48
2018-10-09T03:06:16.660Z,100175.50
2018-10-09T03:07:19.308Z,100164.48
2018-10-09T03:08:21.958Z,100150.68
2018-10-09T03:09:25.424Z,100130.34
2018-10-09T03:10:28.016Z,100127.67
2018-10-09T03:11:30.612Z,100123.17
2018-10-09T03:12:33.239Z,100117.02
2018-10-09T03:13:35.819Z,100121.02
2018-10-09T03:14:38.415Z,100132.50
2018-10-09T03:15:41.006Z,100143.16
2018-10-09T03:16:43.653Z,100152.49
2018-10-09T03:17:46.256Z,100156.02
2018-10-09T03:18:48.852Z,100161.82
2018-10-09T03:19:51.447Z,100168.48
2018-10-09T03:20:54.084Z,100178.33
2018-10-09T03:21:56.677Z,100184.98
2018-10-09T03:22:59.275Z,100185.81
2018-10-09T03:24:01.935Z,100192.00
2018-10-09T03:25:04.816Z,100190.16
2018-10-09T03:26:07.652Z,100188.69
2018-10-09T03:27:10.251Z,100184.05
2018-10-09T03:28:12.883Z,100190.07
2018-10-09T03:29:15.500Z,100192.23
2018-10-09T03:30:18.088Z,100185.77
2018-10-09T03:31:20.696Z,100180.79
2018-10-09T03:32:23.320Z,100180.66
2018-10-09T03:33:25.941Z,100171.16
2018-10-09T03:34:28.588Z,100166.52
2018-10-09T03:35:31.192Z,100170.52
2018-10-09T03:36:33.803Z,100168.53
2018-10-09T03:37:36.527Z,100163.89
2018-10-09T03:38:39.124Z,100165.58
2018-10-09T03:39:41.719Z,100162.43
2018-10-09T03:40:44.342Z,100161.92
2018-10-09T03:41:46.964Z,100158.77
2018-10-09T03:42:49.571Z,100156.92
2018-10-09T03:43:52.199Z,100163.59
2018-10-09T03:44:54.820Z,100153.44
2018-10-09T03:45:57.479Z,100151.94
2018-10-09T03:47:00.122Z,100152.45
2018-10-09T03:48:02.983Z,100150.61
2018-10-09T03:49:05.952Z,100151.94
2018-10-09T03:50:08.583Z,100154.95
2018-10-09T03:51:11.191Z,100148.45
2018-10-09T03:52:13.822Z,100153.78
2018-10-09T03:53:16.467Z,100149.27
2018-10-09T03:54:19.056Z,100147.46
2018-10-09T03:55:21.644Z,100138.60
2018-10-09T03:56:24.291Z,100137.61
2018-10-09T03:57:26.895Z,100133.27
2018-10-09T03:58:29.493Z,100124.28
2018-10-09T03:59:32.089Z,100123.94
2018-10-09T04:00:34.689Z,100117.61
2018-10-09T04:01:37.304Z,100122.47
2018-10-09T04:02:39.908Z,100133.14
2018-10-09T04:03:42.499Z,100126.95
2018-10-09T04:04:45.095Z,100130.95
2018-10-09T04:05:47.716Z,100128.80
2018-10-09T04:06:50.355Z,100121.78
2018-10-09T04:07:52.983Z,100130.61
2018-10-09T04:08:55.628Z,100131.12
2018-10-09T04:09:58.243Z,100129.78
2018-10-09T04:11:00.875Z,100132.92
2018-10-09T04:12:03.475Z,100133.78
2018-10-09T04:13:06.146Z,100136.45
2018-10-09T04:14:08.780Z,100138.77
2018-10-09T04:15:11.455Z,100136.10
2018-10-09T04:16:14.055Z,100137.92
2018-10-09T04:17:16.647Z,100139.25
2018-10-09T04:18:19.241Z,100133.92
2018-10-09T04:19:21.932Z,100138.43
2018-10-09T04:20:24.497Z,100145.44
2018-10-09T04:21:27.095Z,100138.91
2018-10-09T04:22:29.703Z,100132.75
2018-10-09T04:23:32.291Z,100138.43
2018-10-09T04:24:34.915Z,100138.08
2018-10-09T04:25:37.594Z,100137.09
2018-10-09T04:26:40.187Z,100129.57
2018-10-09T04:27:42.804Z,100139.42
2018-10-09T04:28:45.417Z,100137.09
2018-10-09T04:29:48.027Z,100135.42
2018-10-09T04:30:50.627Z,100139.90
2018-10-09T04:31:53.228Z,100138.43
2018-10-09T04:32:55.839Z,100138.08
2018-10-09T04:33:58.435Z,100139.76
2018-10-09T04:35:01.037Z,100138.08
2018-10-09T04:36:03.635Z,100141.58
2018-10-09T04:37:06.296Z,100138.56
2018-10-09T04:38:08.951Z,100145.73
2018-10-09T04:39:11.571Z,100147.55
2018-10-09T04:40:14.195Z,100149.23
2018-10-09T04:41:16.795Z,100155.89
2018-10-09T04:42:19.399Z,100153.23
2018-10-09T04:43:22.040Z,100158.22
2018-10-09T04:44:24.649Z,100159.07
2018-10-09T04:45:28.561Z,100162.22
2018-10-09T04:46:31.160Z,100170.56
2018-10-09T04:47:33.875Z,100170.22
2018-10-09T04:48:36.472Z,100164.88
2018-10-09T04:49:39.073Z,100165.39
2018-10-09T04:50:41.678Z,100160.54
2018-10-09T04:51:44.287Z,100161.88
2018-10-09T04:52:46.892Z,100166.38
2018-10-09T04:53:49.509Z,100167.55
2018-10-09T04:54:52.106Z,100160.54
2018-10-09T04:55:54.755Z,100162.73
2018-10-09T04:56:57.346Z,100166.38
2018-10-09T04:58:00.143Z,100164.53
2018-10-09T04:59:02.864Z,100173.05
2018-10-09T05:00:06.027Z,100162.38
2018-10-09T05:01:08.635Z,100170.73
2018-10-09T05:02:11.239Z,100164.06
2018-10-09T05:03:13.844Z,100167.72
2018-10-09T05:04:16.751Z,100167.20
2018-10-09T05:05:19.351Z,100163.20
2018-10-09T05:06:21.975Z,100167.55
2018-10-09T05:07:24.589Z,100159.20
2018-10-09T05:08:27.183Z,100166.86
2018-10-09T05:09:29.783Z,100165.87
2018-10-09T05:10:32.387Z,100169.88
2018-10-09T05:11:34.979Z,100168.53
2018-10-09T05:12:37.587Z,100175.20
2018-10-09T05:13:40.195Z,100167.20
2018-10-09T05:14:42.839Z,100174.72
2018-10-09T05:15:45.439Z,100167.08
2018-10-09T05:16:48.043Z,100162.73
2018-10-09T05:17:50.632Z,100155.55
2018-10-09T05:18:53.272Z,100149.88
2018-10-09T05:19:55.877Z,100146.22
2018-10-09T05:20:58.479Z,100143.55
2018-10-09T05:22:01.077Z,100143.55
2018-10-09T05:23:03.771Z,100148.75
2018-10-09T05:24:06.395Z,100142.22
2018-10-09T05:25:09.021Z,100137.23
2018-10-09T05:26:11.675Z,100128.41
2018-10-09T05:27:14.318Z,100124.75
2018-10-09T05:28:16.951Z,100125.58
2018-10-09T05:29:19.792Z,100114.56
2018-10-09T05:30:22.492Z,100112.24
2018-10-09T05:31:25.168Z,100111.42
2018-10-09T05:32:27.743Z,100109.57
2018-10-09T05:33:30.355Z,100113.58
2018-10-09T05:34:32.963Z,100112.58
2018-10-09T05:35:35.575Z,100114.91
2018-10-09T05:36:38.181Z,100110.91
2018-10-09T05:37:40.851Z,100120.23
2018-10-09T05:38:44.018Z,100115.25
2018-10-09T05:39:46.620Z,100110.42
2018-10-09T05:40:49.235Z,100117.09
2018-10-09T05:41:51.844Z,100114.77
2018-10-09T05:42:54.591Z,100109.92
2018-10-09T05:43:57.195Z,100116.11
2018-10-09T05:44:59.826Z,100112.58
2018-10-09T05:46:02.441Z,100119.25
2018-10-09T05:47:05.102Z,100128.11
2018-10-09T05:48:08.986Z,100132.58
2018-10-09T05:49:11.587Z,100132.58
2018-10-09T05:50:14.279Z,100125.44
2018-10-09T05:51:16.923Z,100125.91
2018-10-09T05:52:19.541Z,100118.77
2018-10-09T05:53:22.141Z,100128.92
2018-10-09T05:54:24.775Z,100126.27
2018-10-09T05:55:27.390Z,100130.27
2018-10-09T05:56:30.015Z,100131.94
2018-10-09T05:57:32.615Z,100133.62
2018-10-09T05:58:35.226Z,100132.28
2018-10-09T05:59:38.135Z,100136.28
2018-10-09T06:00:40.743Z,100131.80
2018-10-09T06:01:43.340Z,100133.62
2018-10-09T06:02:45.943Z,100124.14
2018-10-09T06:03:48.556Z,100121.48
2018-10-09T06:04:51.155Z,100105.48
2018-10-09T06:05:53.794Z,100096.14
2018-10-09T06:06:56.440Z,100098.30
2018-10-09T06:07:59.180Z,100117.31
2018-10-09T06:09:01.815Z,100109.48
2018-10-09T06:10:04.791Z,100112.63
2018-10-09T06:11:07.420Z,100109.82
2018-10-09T06:12:10.091Z,100112.97
2018-10-09T06:13:12.707Z,100107.16
2018-10-09T06:14:15.301Z,100113.31
2018-10-09T06:15:17.975Z,100116.83
2018-10-09T06:16:20.551Z,100115.98
2018-10-09T06:17:23.141Z,100125.31
2018-10-09T06:18:25.747Z,100130.64
2018-10-09T06:19:28.348Z,100135.16
2018-10-09T06:20:30.963Z,100135.98
2018-10-09T06:21:33.570Z,100133.31
2018-10-09T06:22:36.160Z,100123.98
2018-10-09T06:23:38.799Z,100123.63
2018-10-09T06:24:41.391Z,100123.98
2018-10-09T06:25:43.991Z,100133.66
2018-10-09T06:26:46.599Z,100137.83
2018-10-09T06:27:49.246Z,100151.98
2018-10-09T06:28:51.827Z,100142.64
2018-10-09T06:29:54.439Z,100141.83
2018-10-09T06:30:57.295Z,100143.64
2018-10-09T06:31:59.928Z,100143.64
2018-10-09T06:33:02.537Z,100153.31
2018-10-09T06:34:05.163Z,100157.83
2018-10-09T06:35:07.840Z,100155.98
2018-10-09T06:36:10.520Z,100153.31
2018-10-09T06:37:13.164Z,100153.48
2018-10-09T06:38:15.775Z,100152.49
2018-10-09T06:39:18.373Z,100151.64
2018-10-09T06:40:20.999Z,100150.81
2018-10-09T06:41:23.615Z,100146.64
2018-10-09T06:42:26.216Z,100140.97
2018-10-09T06:43:28.839Z,100133.48
2018-10-09T06:44:31.455Z,100131.64
2018-10-09T06:45:34.082Z,100124.63
2018-10-09T06:46:36.707Z,100130.81
2018-10-09T06:47:39.422Z,100135.64
2018-10-09T06:48:41.975Z,100136.15
2018-10-09T06:49:44.587Z,100135.98
2018-10-09T06:50:47.187Z,100137.31
2018-10-09T06:51:49.796Z,100137.31
2018-10-09T06:52:52.435Z,100127.98
2018-10-09T06:53:55.239Z,100119.16
2018-10-09T06:54:57.731Z,100121.31
2018-10-09T06:56:00.515Z,100123.98
2018-10-09T06:57:03.159Z,100127.50
2018-10-09T06:58:05.767Z,100128.33
2018-10-09T06:59:08.359Z,100116.32
2018-10-09T07:00:11.038Z,100110.64
2018-10-09T07:01:13.624Z,100106.64
2018-10-09T07:02:16.256Z,100104.66
2018-10-09T07:03:18.859Z,100100.32
2018-10-09T07:04:21.476Z,100098.51
2018-10-09T07:05:24.083Z,100107.33
2018-10-09T07:06:26.718Z,100103.84
2018-10-09T07:07:29.327Z,100111.33
2018-10-09T07:08:31.932Z,100115.84
2018-10-09T07:09:34.541Z,100115.33
2018-10-09T07:10:37.136Z,100119.33
2018-10-09T07:11:39.844Z,100121.52
2018-10-09T07:12:42.423Z,100123.33
2018-10-09T07:13:45.043Z,100119.33
2018-10-09T07:14:47.647Z,100114.00
2018-10-09T07:15:50.243Z,100106.85
2018-10-09T07:16:52.858Z,100114.00
2018-10-09T07:17:55.468Z,100114.00
2018-10-09T07:18:58.068Z,100114.34
2018-10-09T07:20:00.711Z,100101.52
2018-10-09T07:21:03.332Z,100100.66
2018-10-09T07:22:05.972Z,100090.85
2018-10-09T07:23:08.587Z,100102.85
2018-10-09T07:24:11.184Z,100116.66
2018-10-09T07:25:13.834Z,100112.66
2018-10-09T07:26:16.479Z,100106.34
2018-10-09T07:27:19.091Z,100102.85
2018-10-09T07:28:21.689Z,100094.34
2018-10-09T07:29:24.320Z,100090.72
2018-10-09T07:30:26.920Z,100091.53
2018-10-09T07:31:29.531Z,100100.73
2018-10-09T07:32:32.298Z,100102.75
2018-10-09T07:33:34.888Z,100110.11
2018-10-09T07:34:37.479Z,100101.80
2018-10-09T07:35:40.091Z,100097.84
2018-10-09T07:36:42.682Z,100101.73
2018-10-09T07:37:45.310Z,100105.98
2018-10-09T07:38:47.920Z,100094.52
2018-10-09T07:39:50.516Z,100097.05
2018-10-09T07:40:53.397Z,100099.95
2018-10-09T07:41:56.039Z,100100.33
2018-10-09T07:42:58.672Z,100097.55
2018-10-09T07:44:01.363Z,100093.57
2018-10-09T07:45:04.035Z,100091.41
2018-10-09T07:46:06.680Z,100088.29
2018-10-09T07:47:09.287Z,100083.15
2018-10-09T07:48:11.874Z,100076.64
2018-10-09T07:49:14.479Z,100074.52
2018-10-09T07:50:17.100Z,100077.34
2018-10-09T07:51:19.699Z,100072.20
2018-10-09T07:52:22.306Z,100070.87
2018-10-09T07:53:24.901Z,100068.88
2018-10-09T07:54:27.527Z,100065.70
2018-10-09T07:55:30.147Z,100056.34
2018-10-09T07:56:32.771Z,100056.69
2018-10-09T07:57:35.409Z,100058.36
2018-10-09T07:58:38.073Z,100057.88
2018-10-09T07:59:40.671Z,100040.94
2018-10-09T08:00:43.383Z,100063.56
2018-10-09T08:01:45.987Z,100059.56
2018-10-09T08:02:48.594Z,100061.37
2018-10-09T08:03:51.455Z,100057.88
2018-10-09T08:04:54.148Z,100061.37
2018-10-09T08:05:56.747Z,100059.22
2018-10-09T08:06:59.403Z,100059.70
2018-10-09T08:08:02.019Z,100062.88
2018-10-09T08:09:07.616Z,100064.70
2018-10-09T08:10:10.243Z,100070.04
2018-10-09T08:11:12.871Z,100065.70
2018-10-09T08:12:15.463Z,100068.88
2018-10-09T08:13:18.107Z,100069.02
2018-10-09T08:14:20.715Z,100071.69
2018-10-09T08:15:23.311Z,100073.37
2018-10-09T08:16:25.932Z,100066.02
2018-10-09T08:17:28.565Z,100063.34
2018-10-09T08:18:31.196Z,100070.02
2018-10-09T08:19:33.801Z,100071.02
2018-10-09T08:20:36.407Z,100072.01
2018-10-09T08:21:39.039Z,100069.34
2018-10-09T08:22:41.738Z,100067.01
2018-10-09T08:23:44.272Z,100069.34
2018-10-09T08:24:47.163Z,100074.68
2018-10-09T08:25:49.796Z,100083.69
2018-10-09T08:26:52.403Z,100073.52
2018-10-09T08:27:55.052Z,100073.00
2018-10-09T08:28:57.654Z,100064.99
2018-10-09T08:30:00.271Z,100068.66
2018-10-09T08:31:02.855Z,100075.33
2018-10-09T08:32:05.527Z,100072.66
2018-10-09T08:33:08.136Z,100075.00
2018-10-09T08:34:10.768Z,100076.33
2018-10-09T08:35:13.374Z,100084.68
2018-10-09T08:36:15.974Z,100084.85
2018-10-09T08:37:18.571Z,100089.34
2018-10-09T08:38:21.179Z,100088.52
2018-10-09T08:39:23.795Z,100090.67
2018-10-09T08:40:26.561Z,100083.66
2018-10-09T08:41:29.116Z,100085.34
2018-10-09T08:42:31.727Z,100085.84
2018-10-09T08:43:34.351Z,100089.34
2018-10-09T08:44:36.951Z,100086.84
2018-10-09T08:45:39.559Z,100091.33
2018-10-09T08:46:42.191Z,100100.19
2018-10-09T08:47:44.819Z,100094.52
2018-10-09T08:48:47.415Z,100093.66
2018-10-09T08:49:50.027Z,100095.33
2018-10-09T08:50:52.695Z,100090.16
2018-10-09T08:51:55.343Z,100091.50
2018-10-09T08:52:57.935Z,100085.31
2018-10-09T08:54:00.563Z,100080.31
2018-10-09T08:55:03.275Z,100081.81
2018-10-09T08:56:06.184Z,100075.48
2018-10-09T08:57:08.779Z,100072.95
2018-10-09T08:58:11.415Z,100071.62
2018-10-09T08:59:14.031Z,100072.95
2018-10-09T09:00:16.671Z,100066.28
2018-10-09T09:01:19.276Z,100065.80
2018-10-09T09:02:21.902Z,100064.95
2018-10-09T09:03:24.530Z,100066.28
2018-10-09T09:04:27.118Z,100066.28
2018-10-09T09:05:29.867Z,100068.95
2018-10-09T09:06:32.490Z,100061.80
2018-10-09T09:07:35.095Z,100055.59
2018-10-09T09:08:37.695Z,100058.78
2018-10-09T09:09:40.367Z,100055.13
2018-10-09T09:10:42.937Z,100055.59
2018-10-09T09:11:45.550Z,100052.93
2018-10-09T09:12:48.175Z,99964.13
2018-10-09T09:13:50.782Z,100051.25
2018-10-09T09:14:53.437Z,100057.93
2018-10-09T09:15:56.040Z,100056.59
2018-10-09T09:16:58.663Z,100057.93
2018-10-09T09:18:01.279Z,100059.27
2018-10-09T09:19:03.939Z,100051.25
2018-10-09T09:20:06.715Z,100047.59
2018-10-09T09:21:09.482Z,100046.42
2018-10-09T09:22:12.048Z,100043.25
2018-10-09T09:23:14.660Z,100040.58
2018-10-09T09:24:17.263Z,100043.25
2018-10-09T09:25:19.859Z,100051.25
2018-10-09T09:26:22.471Z,100043.25
2018-10-09T09:27:25.132Z,100039.58
2018-10-09T09:28:27.696Z,100035.58
2018-10-09T09:29:30.300Z,100035.58
2018-10-09T09:30:32.912Z,100032.09
2018-10-09T09:31:35.536Z,100030.23
2018-10-09T09:32:38.127Z,100032.56
2018-10-09T09:33:40.735Z,100037.42
2018-10-09T09:34:43.344Z,100039.23
2018-10-09T09:35:45.971Z,100034.76
2018-10-09T09:36:48.826Z,100036.91
2018-10-09T09:37:51.447Z,100034.24
2018-10-09T09:38:54.106Z,100038.59
2018-10-09T09:39:56.711Z,100037.59
2018-10-09T09:40:59.352Z,100038.59
2018-10-09T09:42:01.951Z,100034.24
2018-10-09T09:43:04.576Z,100033.25
2018-10-09T09:44:07.187Z,100036.43
2018-10-09T09:45:09.803Z,100033.25
2018-10-09T09:46:12.485Z,100031.57
2018-10-09T09:47:15.064Z,100023.91
2018-10-09T09:48:17.710Z,100021.75
2018-10-09T09:49:20.319Z,100022.56
2018-10-09T09:50:22.915Z,100022.56
2018-10-09T09:51:25.519Z,100023.91
2018-10-09T09:52:28.144Z,100019.90
2018-10-09T09:53:30.751Z,100022.91
2018-10-09T09:54:33.392Z,100017.23
2018-10-09T09:55:36.025Z,100011.89
2018-10-09T09:56:38.652Z,100015.89
2018-10-09T09:57:41.305Z,100017.56
2018-10-09T09:58:44.132Z,100013.56
2018-10-09T09:59:46.584Z,100013.56
2018-10-09T10:01:02.658Z,100012.56
2018-10-09T10:02:05.299Z,100003.22
2018-10-09T10:03:07.971Z,100008.08
2018-10-09T10:04:11.359Z,100008.91
2018-10-09T10:05:13.999Z,100015.91
2018-10-09T10:06:16.611Z,100014.58
2018-10-09T10:07:19.251Z,100018.10
2018-10-09T10:08:21.852Z,100020.09
2018-10-09T10:09:24.569Z,100020.12
2018-10-09T10:10:27.131Z,100027.13
2018-10-09T10:11:29.751Z,100020.94
2018-10-09T10:12:32.363Z,100024.13
2018-10-09T10:13:34.987Z,100022.61
2018-10-09T10:14:37.588Z,100018.12
2018-10-09T10:15:40.215Z,100023.95
2018-10-09T10:16:42.831Z,100015.12
2018-10-09T10:17:45.514Z,100016.28
2018-10-09T10:18:48.133Z,100019.28
2018-10-09T10:19:50.823Z,100012.61
2018-10-09T10:20:53.434Z,100007.27
2018-10-09T10:21:56.101Z,99986.36
2018-10-09T10:22:58.715Z,100006.78
2018-10-09T10:24:01.352Z,100008.94
2018-10-09T10:25:04.023Z,100012.95
2018-10-09T10:26:06.771Z,100014.63
2018-10-09T10:27:09.371Z,100016.81
2018-10-09T10:28:11.983Z,100013.28
2018-10-09T10:29:14.606Z,100018.62
2018-10-09T10:30:17.247Z,100015.81
2018-10-09T10:31:19.854Z,100011.81
2018-10-09T10:32:22.483Z,100006.95
2018-10-09T10:33:25.095Z,100016.64
2018-10-09T10:34:27.707Z,100003.10
2018-10-09T10:35:30.393Z,100012.63
2018-10-09T10:36:32.998Z,100019.64
2018-10-09T10:37:35.591Z,100016.48
2018-10-09T10:38:38.215Z,100020.16
2018-10-09T10:39:40.820Z,100026.32
2018-10-09T10:40:43.420Z,100022.31
2018-10-09T10:41:46.015Z,100021.83
2018-10-09T10:42:48.631Z,100017.31
2018-10-09T10:43:51.237Z,100015.98
2018-10-09T10:44:53.875Z,100015.98
2018-10-09T10:45:56.499Z,100012.83
2018-10-09T10:46:59.128Z,100008.81
2018-10-09T10:48:01.745Z,100012.31
2018-10-09T10:49:06.144Z,100014.64
2018-10-09T10:50:08.731Z,100007.83
2018-10-09T10:51:11.350Z,100004.81
2018-10-09T10:52:13.946Z,99998.62
2018-10-09T10:53:16.547Z,100001.62
2018-10-09T10:54:19.183Z,99998.95
2018-10-09T10:55:21.784Z,100000.30
2018-10-09T10:56:24.432Z,99994.95
2018-10-09T10:57:27.056Z,99991.80
2018-10-09T10:58:29.667Z,99989.61
2018-10-09T10:59:32.267Z,99990.95
2018-10-09T11:00:34.919Z,99988.61
2018-10-09T11:01:37.542Z,99985.61
2018-10-09T11:02:40.167Z,99983.27
2018-10-09T11:03:42.756Z,99986.80
2018-10-09T11:04:45.460Z,99978.45
2018-10-09T11:05:48.078Z,99982.31
2018-10-09T11:06:50.687Z,99982.31
2018-10-09T11:07:53.314Z,99980.97
2018-10-09T11:08:55.935Z,99988.98
2018-10-09T11:09:58.758Z,99989.95
2018-10-09T11:11:01.363Z,99992.99
2018-10-09T11:12:04.116Z,99993.14
2018-10-09T11:13:06.824Z,99997.33
2018-10-09T11:14:09.440Z,99992.99
2018-10-09T11:15:12.083Z,99988.98
2018-10-09T11:16:14.807Z,99995.48
2018-10-09T11:17:17.435Z,99986.48
2018-10-09T11:18:20.050Z,99992.67
2018-10-09T11:19:22.683Z,99994.34
2018-10-09T11:20:25.279Z,99990.34
2018-10-09T11:21:27.928Z,99995.34
2018-10-09T11:22:30.547Z,99997.83
2018-10-09T11:23:33.227Z,99997.83
2018-10-09T11:24:35.912Z,100003.52
2018-10-09T11:25:38.583Z,100001.36
2018-10-09T11:26:41.252Z,100003.03
2018-10-09T11:27:43.879Z,99997.69
2018-10-09T11:28:46.508Z,100001.70
2018-10-09T11:29:49.223Z,100005.19
2018-10-09T11:30:51.858Z,100006.04
2018-10-09T11:31:54.452Z,100005.19
2018-10-09T11:32:57.055Z,100006.86
2018-10-09T11:33:59.668Z,100009.87
2018-10-09T11:35:02.307Z,100000.70
2018-10-09T11:36:04.935Z,100009.87
2018-10-09T11:37:07.579Z,100014.05
2018-10-09T11:38:10.199Z,100011.72
2018-10-09T11:39:12.819Z,100009.19
2018-10-09T11:40:15.521Z,100007.38
2018-10-09T11:41:18.135Z,100007.38
2018-10-09T11:42:20.744Z,100010.05
2018-10-09T11:43:23.355Z,100012.72
2018-10-09T11:44:25.964Z,100010.53
2018-10-09T11:45:28.656Z,100005.19
2018-10-09T11:46:31.367Z,100005.19
2018-10-09T11:47:33.975Z,100007.38
2018-10-09T11:48:36.583Z,100006.52
2018-10-09T11:49:39.190Z,100006.04
2018-10-09T11:50:41.835Z,100004.84
2018-10-09T11:51:44.451Z,100006.04
2018-10-09T11:52:47.074Z,100006.86
2018-10-09T11:53:49.667Z,100008.20
2018-10-09T11:54:52.282Z,100009.53
2018-10-09T11:55:54.956Z,100014.39